sensor_id;sensor_type;location;lat;lon;timestamp;pressure;altitude;pressure_sealevel;temperature
34310;BMP280;61664;48.112;11.662;2023-01-10T00:01:18;94999.72;;;6.90
34310;BMP280;61664;48.112;11.662;2023-01-10T00:03:45;95005.34;;;6.92
34310;BMP280;61664;48.112;11.662;2023-01-10T00:06:12;95008.13;;;6.89
34310;BMP280;61664;48.112;11.662;2023-01-10T00:08:39;95015.63;;;6.90
34310;BMP280;61664;48.112;11.662;2023-01-10T00:11:06;95017.69;;;6.86
34310;BMP280;61664;48.112;11.662;2023-01-10T00:13:55;95014.91;;;6.90
34310;BMP280;61664;48.112;11.662;2023-01-10T00:16:22;95031.75;;;6.96
34310;BMP280;61664;48.112;11.662;2023-01-10T00:18:49;95027.47;;;6.99
34310;BMP280;61664;48.112;11.662;2023-01-10T00:21:16;95036.50;;;7.01
34310;BMP280;61664;48.112;11.662;2023-01-10T00:23:44;95032.66;;;7.02
34310;BMP280;61664;48.112;11.662;2023-01-10T00:26:11;95035.72;;;7.01
34310;BMP280;61664;48.112;11.662;2023-01-10T00:28:38;95020.09;;;6.93
34310;BMP280;61664;48.112;11.662;2023-01-10T00:31:05;95037.84;;;7.06
34310;BMP280;61664;48.112;11.662;2023-01-10T00:33:36;95040.03;;;7.07
34310;BMP280;61664;48.112;11.662;2023-01-10T00:36:07;95043.16;;;7.06
34310;BMP280;61664;48.112;11.662;2023-01-10T00:38:34;95040.50;;;7.06
34310;BMP280;61664;48.112;11.662;2023-01-10T00:41:02;95059.53;;;7.13
34310;BMP280;61664;48.112;11.662;2023-01-10T00:43:49;95063.03;;;7.10
34310;BMP280;61664;48.112;11.662;2023-01-10T00:46:22;95070.88;;;7.05
34310;BMP280;61664;48.112;11.662;2023-01-10T00:48:50;95073.09;;;7.06
34310;BMP280;61664;48.112;11.662;2023-01-10T00:51:18;95073.53;;;7.05
34310;BMP280;61664;48.112;11.662;2023-01-10T00:53:45;95074.41;;;7.02
34310;BMP280;61664;48.112;11.662;2023-01-10T00:56:12;95068.03;;;6.99
34310;BMP280;61664;48.112;11.662;2023-01-10T00:58:39;95084.28;;;7.10
34310;BMP280;61664;48.112;11.662;2023-01-10T01:01:05;95085.38;;;7.13
34310;BMP280;61664;48.112;11.662;2023-01-10T01:03:32;95092.03;;;7.17
34310;BMP280;61664;48.112;11.662;2023-01-10T01:06:04;95072.06;;;7.04
34310;BMP280;61664;48.112;11.662;2023-01-10T01:08:32;95090.34;;;7.11
34310;BMP280;61664;48.112;11.662;2023-01-10T01:10:59;95104.25;;;7.15
34310;BMP280;61664;48.112;11.662;2023-01-10T01:13:26;95110.44;;;7.12
34310;BMP280;61664;48.112;11.662;2023-01-10T01:15:57;95117.25;;;7.13
34310;BMP280;61664;48.112;11.662;2023-01-10T01:18:25;95114.88;;;7.15
34310;BMP280;61664;48.112;11.662;2023-01-10T01:20:55;95114.44;;;7.07
34310;BMP280;61664;48.112;11.662;2023-01-10T01:23:23;95130.66;;;7.09
34310;BMP280;61664;48.112;11.662;2023-01-10T01:25:54;95122.34;;;6.98
34310;BMP280;61664;48.112;11.662;2023-01-10T01:28:22;95139.81;;;7.08
34310;BMP280;61664;48.112;11.662;2023-01-10T01:30:49;95133.03;;;7.07
34310;BMP280;61664;48.112;11.662;2023-01-10T01:33:18;95132.41;;;7.03
34310;BMP280;61664;48.112;11.662;2023-01-10T01:35:48;95140.56;;;7.09
34310;BMP280;61664;48.112;11.662;2023-01-10T01:38:16;95156.66;;;7.14
34310;BMP280;61664;48.112;11.662;2023-01-10T01:40:43;95154.72;;;7.06
34310;BMP280;61664;48.112;11.662;2023-01-10T01:43:25;95160.63;;;7.10
34310;BMP280;61664;48.112;11.662;2023-01-10T01:45:54;95171.56;;;7.12
34310;BMP280;61664;48.112;11.662;2023-01-10T01:48:38;95175.38;;;7.11
34310;BMP280;61664;48.112;11.662;2023-01-10T01:51:14;95179.53;;;7.12
34310;BMP280;61664;48.112;11.662;2023-01-10T01:53:45;95177.13;;;7.05
34310;BMP280;61664;48.112;11.662;2023-01-10T01:56:23;95184.47;;;7.01
34310;BMP280;61664;48.112;11.662;2023-01-10T01:59:04;95195.72;;;7.05
34310;BMP280;61664;48.112;11.662;2023-01-10T02:01:38;95184.16;;;6.99
34310;BMP280;61664;48.112;11.662;2023-01-10T02:04:17;95196.59;;;7.02
34310;BMP280;61664;48.112;11.662;2023-01-10T02:06:50;95201.03;;;7.05
34310;BMP280;61664;48.112;11.662;2023-01-10T02:09:40;95204.00;;;7.07
34310;BMP280;61664;48.112;11.662;2023-01-10T02:12:09;95206.34;;;7.05
34310;BMP280;61664;48.112;11.662;2023-01-10T02:14:37;95207.22;;;7.02
34310;BMP280;61664;48.112;11.662;2023-01-10T02:17:08;95195.25;;;6.97
34310;BMP280;61664;48.112;11.662;2023-01-10T02:19:49;95204.81;;;6.94
34310;BMP280;61664;48.112;11.662;2023-01-10T02:25:38;95213.75;;;6.88
34310;BMP280;61664;48.112;11.662;2023-01-10T02:34:34;95207.13;;;6.83
34310;BMP280;61664;48.112;11.662;2023-01-10T02:37:29;95216.69;;;6.81
34310;BMP280;61664;48.112;11.662;2023-01-10T02:43:05;95220.63;;;6.76
34310;BMP280;61664;48.112;11.662;2023-01-10T02:45:41;95213.25;;;6.71
34310;BMP280;61664;48.112;11.662;2023-01-10T02:48:09;95210.59;;;6.71
34310;BMP280;61664;48.112;11.662;2023-01-10T02:53:35;95227.88;;;6.76
34310;BMP280;61664;48.112;11.662;2023-01-10T03:07:12;95237.00;;;6.75
34310;BMP280;61664;48.112;11.662;2023-01-10T03:14:56;95256.94;;;6.79
34310;BMP280;61664;48.112;11.662;2023-01-10T03:17:25;95260.16;;;6.74
34310;BMP280;61664;48.112;11.662;2023-01-10T03:19:59;95259.84;;;6.72
34310;BMP280;61664;48.112;11.662;2023-01-10T03:22:29;95277.56;;;6.75
34310;BMP280;61664;48.112;11.662;2023-01-10T03:24:59;95272.25;;;6.75
34310;BMP280;61664;48.112;11.662;2023-01-10T03:27:53;95273.69;;;6.67
34310;BMP280;61664;48.112;11.662;2023-01-10T03:30:31;95281.09;;;6.72
34310;BMP280;61664;48.112;11.662;2023-01-10T03:33:03;95295.72;;;6.77
34310;BMP280;61664;48.112;11.662;2023-01-10T03:38:50;95304.00;;;6.79
34310;BMP280;61664;48.112;11.662;2023-01-10T03:41:29;95307.72;;;6.81
34310;BMP280;61664;48.112;11.662;2023-01-10T03:47:04;95309.75;;;6.77
34310;BMP280;61664;48.112;11.662;2023-01-10T03:49:34;95324.06;;;6.80
34310;BMP280;61664;48.112;11.662;2023-01-10T03:52:04;95332.97;;;6.86
34310;BMP280;61664;48.112;11.662;2023-01-10T03:54:32;95334.28;;;6.81
34310;BMP280;61664;48.112;11.662;2023-01-10T03:56:59;95340.81;;;6.89
34310;BMP280;61664;48.112;11.662;2023-01-10T03:59:28;95347.19;;;6.92
34310;BMP280;61664;48.112;11.662;2023-01-10T04:01:56;95343.81;;;6.91
34310;BMP280;61664;48.112;11.662;2023-01-10T04:04:23;95346.19;;;6.99
34310;BMP280;61664;48.112;11.662;2023-01-10T04:06:50;95356.97;;;6.95
34310;BMP280;61664;48.112;11.662;2023-01-10T04:09:17;95353.88;;;6.97
34310;BMP280;61664;48.112;11.662;2023-01-10T04:11:43;95367.44;;;6.99
34310;BMP280;61664;48.112;11.662;2023-01-10T04:14:10;95373.75;;;6.92
34310;BMP280;61664;48.112;11.662;2023-01-10T04:16:37;95370.69;;;6.93
34310;BMP280;61664;48.112;11.662;2023-01-10T04:19:04;95376.81;;;6.90
34310;BMP280;61664;48.112;11.662;2023-01-10T04:21:31;95384.47;;;6.88
34310;BMP280;61664;48.112;11.662;2023-01-10T04:23:58;95383.41;;;6.86
34310;BMP280;61664;48.112;11.662;2023-01-10T04:26:25;95399.66;;;6.88
34310;BMP280;61664;48.112;11.662;2023-01-10T04:28:52;95411.78;;;6.89
34310;BMP280;61664;48.112;11.662;2023-01-10T04:31:19;95403.81;;;6.89
34310;BMP280;61664;48.112;11.662;2023-01-10T04:33:46;95421.13;;;6.93
34310;BMP280;61664;48.112;11.662;2023-01-10T04:36:12;95420.41;;;6.93
34310;BMP280;61664;48.112;11.662;2023-01-10T04:38:39;95421.13;;;6.93
34310;BMP280;61664;48.112;11.662;2023-01-10T04:41:06;95424.72;;;7.00
34310;BMP280;61664;48.112;11.662;2023-01-10T04:43:33;95424.31;;;7.01
34310;BMP280;61664;48.112;11.662;2023-01-10T04:46:00;95435.03;;;6.97
34310;BMP280;61664;48.112;11.662;2023-01-10T04:48:27;95447.34;;;7.04
34310;BMP280;61664;48.112;11.662;2023-01-10T04:50:54;95438.41;;;6.98
34310;BMP280;61664;48.112;11.662;2023-01-10T04:53:21;95440.03;;;6.95
34310;BMP280;61664;48.112;11.662;2023-01-10T04:55:48;95442.69;;;6.95
34310;BMP280;61664;48.112;11.662;2023-01-10T04:58:15;95459.22;;;7.00
34310;BMP280;61664;48.112;11.662;2023-01-10T05:00:42;95449.63;;;6.93
34310;BMP280;61664;48.112;11.662;2023-01-10T05:03:09;95456.41;;;6.94
34310;BMP280;61664;48.112;11.662;2023-01-10T05:05:36;95463.72;;;6.90
34310;BMP280;61664;48.112;11.662;2023-01-10T05:08:03;95469.78;;;6.90
34310;BMP280;61664;48.112;11.662;2023-01-10T05:10:30;95484.97;;;6.90
34310;BMP280;61664;48.112;11.662;2023-01-10T05:12:57;95487.88;;;6.83
34310;BMP280;61664;48.112;11.662;2023-01-10T05:15:24;95496.59;;;6.83
34310;BMP280;61664;48.112;11.662;2023-01-10T05:17:57;95490.84;;;6.85
34310;BMP280;61664;48.112;11.662;2023-01-10T05:20:25;95497.19;;;6.87
34310;BMP280;61664;48.112;11.662;2023-01-10T05:22:52;95495.41;;;6.84
34310;BMP280;61664;48.112;11.662;2023-01-10T05:25:19;95503.69;;;6.86
34310;BMP280;61664;48.112;11.662;2023-01-10T05:27:46;95505.06;;;6.78
34310;BMP280;61664;48.112;11.662;2023-01-10T05:30:13;95519.31;;;6.84
34310;BMP280;61664;48.112;11.662;2023-01-10T05:32:40;95517.53;;;6.81
34310;BMP280;61664;48.112;11.662;2023-01-10T05:35:07;95516.00;;;6.80
34310;BMP280;61664;48.112;11.662;2023-01-10T05:37:35;95526.63;;;6.80
34310;BMP280;61664;48.112;11.662;2023-01-10T05:40:04;95520.56;;;6.80
34310;BMP280;61664;48.112;11.662;2023-01-10T05:42:31;95526.00;;;6.76
34310;BMP280;61664;48.112;11.662;2023-01-10T05:44:58;95536.63;;;6.76
34310;BMP280;61664;48.112;11.662;2023-01-10T05:47:25;95521.75;;;6.66
34310;BMP280;61664;48.112;11.662;2023-01-10T05:49:52;95547.97;;;6.77
34310;BMP280;61664;48.112;11.662;2023-01-10T05:52:19;95547.25;;;6.76
34310;BMP280;61664;48.112;11.662;2023-01-10T05:54:46;95543.41;;;6.77
34310;BMP280;61664;48.112;11.662;2023-01-10T05:57:13;95555.53;;;6.78
34310;BMP280;61664;48.112;11.662;2023-01-10T05:59:40;95558.28;;;6.75
34310;BMP280;61664;48.112;11.662;2023-01-10T06:02:07;95548.41;;;6.75
34310;BMP280;61664;48.112;11.662;2023-01-10T06:04:34;95552.88;;;6.78
34310;BMP280;61664;48.112;11.662;2023-01-10T06:07:01;95563.06;;;6.80
34310;BMP280;61664;48.112;11.662;2023-01-10T06:09:28;95579.66;;;6.84
34310;BMP280;61664;48.112;11.662;2023-01-10T06:11:55;95569.97;;;6.77
34310;BMP280;61664;48.112;11.662;2023-01-10T06:14:22;95597.50;;;6.83
34310;BMP280;61664;48.112;11.662;2023-01-10T06:16:48;95594.63;;;6.78
34310;BMP280;61664;48.112;11.662;2023-01-10T06:19:15;95589.81;;;6.73
34310;BMP280;61664;48.112;11.662;2023-01-10T06:21:42;95613.88;;;6.82
34310;BMP280;61664;48.112;11.662;2023-01-10T06:24:09;95610.03;;;6.83
34310;BMP280;61664;48.112;11.662;2023-01-10T06:26:36;95612.28;;;6.84
34310;BMP280;61664;48.112;11.662;2023-01-10T06:29:03;95626.72;;;6.83
34310;BMP280;61664;48.112;11.662;2023-01-10T06:31:30;95618.09;;;6.79
34310;BMP280;61664;48.112;11.662;2023-01-10T06:33:57;95619.69;;;6.77
34310;BMP280;61664;48.112;11.662;2023-01-10T06:36:24;95635.50;;;6.80
34310;BMP280;61664;48.112;11.662;2023-01-10T06:38:51;95642.00;;;6.79
34310;BMP280;61664;48.112;11.662;2023-01-10T06:41:17;95646.75;;;6.72
34310;BMP280;61664;48.112;11.662;2023-01-10T06:43:46;95662.59;;;6.75
34310;BMP280;61664;48.112;11.662;2023-01-10T06:46:15;95652.72;;;6.76
34310;BMP280;61664;48.112;11.662;2023-01-10T06:48:43;95648.34;;;6.69
34310;BMP280;61664;48.112;11.662;2023-01-10T06:51:15;95657.38;;;6.72
34310;BMP280;61664;48.112;11.662;2023-01-10T06:53:46;95658.13;;;6.72
34310;BMP280;61664;48.112;11.662;2023-01-10T06:56:13;95678.72;;;6.68
34310;BMP280;61664;48.112;11.662;2023-01-10T06:58:39;95685.53;;;6.69
34310;BMP280;61664;48.112;11.662;2023-01-10T07:01:13;95693.38;;;6.73
34310;BMP280;61664;48.112;11.662;2023-01-10T07:03:41;95703.03;;;6.67
34310;BMP280;61664;48.112;11.662;2023-01-10T07:06:08;95709.78;;;6.71
34310;BMP280;61664;48.112;11.662;2023-01-10T07:08:42;95712.19;;;6.66
34310;BMP280;61664;48.112;11.662;2023-01-10T07:11:11;95720.41;;;6.71
34310;BMP280;61664;48.112;11.662;2023-01-10T07:13:38;95727.91;;;6.73
34310;BMP280;61664;48.112;11.662;2023-01-10T07:16:12;95724.69;;;6.65
34310;BMP280;61664;48.112;11.662;2023-01-10T07:18:41;95740.44;;;6.72
34310;BMP280;61664;48.112;11.662;2023-01-10T07:21:10;95730.50;;;6.60
34310;BMP280;61664;48.112;11.662;2023-01-10T07:23:38;95758.81;;;6.67
34310;BMP280;61664;48.112;11.662;2023-01-10T07:26:08;95770.69;;;6.62
34310;BMP280;61664;48.112;11.662;2023-01-10T07:28:36;95767.78;;;6.56
34310;BMP280;61664;48.112;11.662;2023-01-10T07:31:05;95769.59;;;6.59
34310;BMP280;61664;48.112;11.662;2023-01-10T07:33:32;95778.97;;;6.64
34310;BMP280;61664;48.112;11.662;2023-01-10T07:36:00;95795.47;;;6.72
34310;BMP280;61664;48.112;11.662;2023-01-10T07:38:28;95805.25;;;6.75
34310;BMP280;61664;48.112;11.662;2023-01-10T07:40:55;95812.78;;;6.76
34310;BMP280;61664;48.112;11.662;2023-01-10T07:43:22;95807.00;;;6.65
34310;BMP280;61664;48.112;11.662;2023-01-10T07:45:48;95808.84;;;6.68
34310;BMP280;61664;48.112;11.662;2023-01-10T07:48:15;95831.91;;;6.71
34310;BMP280;61664;48.112;11.662;2023-01-10T07:50:42;95813.16;;;6.62
34310;BMP280;61664;48.112;11.662;2023-01-10T07:53:09;95843.41;;;6.81
34310;BMP280;61664;48.112;11.662;2023-01-10T07:55:36;95845.31;;;6.80
34310;BMP280;61664;48.112;11.662;2023-01-10T07:58:06;95845.13;;;6.87
34310;BMP280;61664;48.112;11.662;2023-01-10T08:00:36;95825.59;;;6.81
34310;BMP280;61664;48.112;11.662;2023-01-10T08:03:03;95852.25;;;6.90
34310;BMP280;61664;48.112;11.662;2023-01-10T08:05:32;95846.56;;;6.92
34310;BMP280;61664;48.112;11.662;2023-01-10T08:08:10;95858.81;;;7.02
34310;BMP280;61664;48.112;11.662;2023-01-10T08:10:38;95873.50;;;7.07
34310;BMP280;61664;48.112;11.662;2023-01-10T08:13:05;95873.38;;;7.10
34310;BMP280;61664;48.112;11.662;2023-01-10T08:15:44;95872.34;;;7.08
34310;BMP280;61664;48.112;11.662;2023-01-10T08:18:13;95883.28;;;7.10
34310;BMP280;61664;48.112;11.662;2023-01-10T08:20:40;95888.41;;;7.17
34310;BMP280;61664;48.112;11.662;2023-01-10T08:23:07;95899.28;;;7.22
34310;BMP280;61664;48.112;11.662;2023-01-10T08:25:34;95902.03;;;7.19
34310;BMP280;61664;48.112;11.662;2023-01-10T08:28:03;95907.69;;;7.21
34310;BMP280;61664;48.112;11.662;2023-01-10T08:30:30;95906.69;;;7.15
34310;BMP280;61664;48.112;11.662;2023-01-10T08:32:57;95923.94;;;7.23
34310;BMP280;61664;48.112;11.662;2023-01-10T08:35:23;95920.41;;;7.13
34310;BMP280;61664;48.112;11.662;2023-01-10T08:37:50;95926.38;;;7.17
34310;BMP280;61664;48.112;11.662;2023-01-10T08:40:17;95917.97;;;7.19
34310;BMP280;61664;48.112;11.662;2023-01-10T08:42:44;95934.41;;;7.30
34310;BMP280;61664;48.112;11.662;2023-01-10T08:45:11;95937.69;;;7.34
34310;BMP280;61664;48.112;11.662;2023-01-10T08:47:38;95931.66;;;7.34
34310;BMP280;61664;48.112;11.662;2023-01-10T08:50:05;95936.66;;;7.32
34310;BMP280;61664;48.112;11.662;2023-01-10T08:52:33;95938.16;;;7.33
34310;BMP280;61664;48.112;11.662;2023-01-10T08:55:00;95932.91;;;7.29
34310;BMP280;61664;48.112;11.662;2023-01-10T08:57:27;95953.81;;;7.43
34310;BMP280;61664;48.112;11.662;2023-01-10T08:59:54;95948.56;;;7.40
34310;BMP280;61664;48.112;11.662;2023-01-10T09:02:21;95956.16;;;7.41
34310;BMP280;61664;48.112;11.662;2023-01-10T09:04:48;95959.13;;;7.43
34310;BMP280;61664;48.112;11.662;2023-01-10T09:07:15;95975.66;;;7.51
34310;BMP280;61664;48.112;11.662;2023-01-10T09:09:42;95965.41;;;7.49
34310;BMP280;61664;48.112;11.662;2023-01-10T09:12:08;95972.91;;;7.54
34310;BMP280;61664;48.112;11.662;2023-01-10T09:14:54;95958.88;;;7.38
34310;BMP280;61664;48.112;11.662;2023-01-10T09:17:21;95985.50;;;7.50
34310;BMP280;61664;48.112;11.662;2023-01-10T09:19:48;95988.06;;;7.41
34310;BMP280;61664;48.112;11.662;2023-01-10T09:22:15;96000.06;;;7.46
34310;BMP280;61664;48.112;11.662;2023-01-10T09:24:42;95983.34;;;7.33
34310;BMP280;61664;48.112;11.662;2023-01-10T09:27:09;95994.72;;;7.33
34310;BMP280;61664;48.112;11.662;2023-01-10T09:29:37;96000.28;;;7.22
34310;BMP280;61664;48.112;11.662;2023-01-10T09:32:04;96009.91;;;7.16
34310;BMP280;61664;48.112;11.662;2023-01-10T09:34:31;96016.50;;;7.12
34310;BMP280;61664;48.112;11.662;2023-01-10T09:36:58;96008.34;;;7.03
34310;BMP280;61664;48.112;11.662;2023-01-10T09:39:25;96012.41;;;7.07
34310;BMP280;61664;48.112;11.662;2023-01-10T09:45:17;96015.97;;;7.17
34310;BMP280;61664;48.112;11.662;2023-01-10T09:47:52;96016.81;;;7.14
34310;BMP280;61664;48.112;11.662;2023-01-10T09:50:49;96024.38;;;7.15
34310;BMP280;61664;48.112;11.662;2023-01-10T09:53:23;96025.59;;;7.11
34310;BMP280;61664;48.112;11.662;2023-01-10T09:55:56;96026.63;;;7.17
34310;BMP280;61664;48.112;11.662;2023-01-10T09:58:26;96034.09;;;7.22
34310;BMP280;61664;48.112;11.662;2023-01-10T10:01:20;96025.94;;;7.29
34310;BMP280;61664;48.112;11.662;2023-01-10T10:06:25;96038.31;;;7.52
34310;BMP280;61664;48.112;11.662;2023-01-10T10:08:52;96029.31;;;7.62
34310;BMP280;61664;48.112;11.662;2023-01-10T10:14:22;96034.38;;;7.85
34310;BMP280;61664;48.112;11.662;2023-01-10T10:17:12;96024.03;;;8.16
34310;BMP280;61664;48.112;11.662;2023-01-10T10:20:42;96029.41;;;8.54
34310;BMP280;61664;48.112;11.662;2023-01-10T10:32:18;96018.59;;;9.09
34310;BMP280;61664;48.112;11.662;2023-01-10T10:35:01;96016.19;;;9.02
34310;BMP280;61664;48.112;11.662;2023-01-10T10:37:51;96015.44;;;9.01
34310;BMP280;61664;48.112;11.662;2023-01-10T10:40:25;95994.06;;;9.14
34310;BMP280;61664;48.112;11.662;2023-01-10T10:42:58;96006.75;;;9.44
34310;BMP280;61664;48.112;11.662;2023-01-10T10:45:39;95987.22;;;9.47
34310;BMP280;61664;48.112;11.662;2023-01-10T10:51:20;96010.38;;;9.72
34310;BMP280;61664;48.112;11.662;2023-01-10T10:53:49;96002.41;;;9.60
34310;BMP280;61664;48.112;11.662;2023-01-10T10:56:20;96006.28;;;9.59
34310;BMP280;61664;48.112;11.662;2023-01-10T10:58:52;96015.34;;;9.61
34310;BMP280;61664;48.112;11.662;2023-01-10T11:01:22;96007.16;;;9.56
34310;BMP280;61664;48.112;11.662;2023-01-10T11:03:59;96009.19;;;9.51
34310;BMP280;61664;48.112;11.662;2023-01-10T11:06:29;96019.88;;;9.51
34310;BMP280;61664;48.112;11.662;2023-01-10T11:09:02;96020.06;;;9.57
34310;BMP280;61664;48.112;11.662;2023-01-10T11:11:44;96012.72;;;9.48
34310;BMP280;61664;48.112;11.662;2023-01-10T11:14:12;96043.56;;;9.49
34310;BMP280;61664;48.112;11.662;2023-01-10T11:16:42;96033.34;;;9.35
34310;BMP280;61664;48.112;11.662;2023-01-10T11:19:18;96035.19;;;9.26
34310;BMP280;61664;48.112;11.662;2023-01-10T11:24:34;96049.53;;;9.06
34310;BMP280;61664;48.112;11.662;2023-01-10T11:27:15;96044.75;;;8.88
34310;BMP280;61664;48.112;11.662;2023-01-10T11:29:45;96041.66;;;8.77
34310;BMP280;61664;48.112;11.662;2023-01-10T11:32:17;96052.63;;;8.79
34310;BMP280;61664;48.112;11.662;2023-01-10T11:34:55;96060.31;;;8.77
34310;BMP280;61664;48.112;11.662;2023-01-10T11:37:32;96051.69;;;8.73
34310;BMP280;61664;48.112;11.662;2023-01-10T11:40:21;96043.03;;;8.69
34310;BMP280;61664;48.112;11.662;2023-01-10T11:42:57;96040.91;;;8.64
34310;BMP280;61664;48.112;11.662;2023-01-10T11:45:32;96041.56;;;8.68
34310;BMP280;61664;48.112;11.662;2023-01-10T11:48:19;96057.03;;;8.73
34310;BMP280;61664;48.112;11.662;2023-01-10T11:51:22;96034.72;;;8.67
34310;BMP280;61664;48.112;11.662;2023-01-10T11:54:01;96050.09;;;8.63
34310;BMP280;61664;48.112;11.662;2023-01-10T11:56:35;96052.19;;;8.55
34310;BMP280;61664;48.112;11.662;2023-01-10T11:59:15;96034.75;;;8.42
34310;BMP280;61664;48.112;11.662;2023-01-10T12:02:19;96032.84;;;8.42
34310;BMP280;61664;48.112;11.662;2023-01-10T12:04:50;96047.50;;;8.47
34310;BMP280;61664;48.112;11.662;2023-01-10T12:07:18;96043.25;;;8.49
34310;BMP280;61664;48.112;11.662;2023-01-10T12:10:01;96051.16;;;8.53
34310;BMP280;61664;48.112;11.662;2023-01-10T12:12:33;96049.97;;;8.54
34310;BMP280;61664;48.112;11.662;2023-01-10T12:15:33;96038.13;;;8.55
34310;BMP280;61664;48.112;11.662;2023-01-10T12:18:05;96044.63;;;8.67
34310;BMP280;61664;48.112;11.662;2023-01-10T12:20:47;96042.97;;;8.73
34310;BMP280;61664;48.112;11.662;2023-01-10T12:23:21;96043.47;;;8.80
34310;BMP280;61664;48.112;11.662;2023-01-10T12:25:52;96039.94;;;8.96
34310;BMP280;61664;48.112;11.662;2023-01-10T12:28:41;96038.13;;;9.06
34310;BMP280;61664;48.112;11.662;2023-01-10T12:31:13;96042.25;;;9.19
34310;BMP280;61664;48.112;11.662;2023-01-10T12:33:52;96043.16;;;9.38
34310;BMP280;61664;48.112;11.662;2023-01-10T12:39:38;96062.66;;;9.48
34310;BMP280;61664;48.112;11.662;2023-01-10T12:45:18;96045.75;;;9.29
34310;BMP280;61664;48.112;11.662;2023-01-10T12:48:42;96048.09;;;9.27
34310;BMP280;61664;48.112;11.662;2023-01-10T12:51:21;96047.88;;;9.34
34310;BMP280;61664;48.112;11.662;2023-01-10T12:54:04;96065.84;;;9.56
34310;BMP280;61664;48.112;11.662;2023-01-10T12:56:39;96056.44;;;9.64
34310;BMP280;61664;48.112;11.662;2023-01-10T12:59:28;96056.50;;;9.73
34310;BMP280;61664;48.112;11.662;2023-01-10T13:02:13;96067.81;;;9.77
34310;BMP280;61664;48.112;11.662;2023-01-10T13:04:47;96075.50;;;9.75
34310;BMP280;61664;48.112;11.662;2023-01-10T13:07:16;96059.91;;;9.73
34310;BMP280;61664;48.112;11.662;2023-01-10T13:09:46;96078.53;;;9.86
34310;BMP280;61664;48.112;11.662;2023-01-10T13:12:17;96070.66;;;9.82
34310;BMP280;61664;48.112;11.662;2023-01-10T13:15:21;96059.06;;;9.76
34310;BMP280;61664;48.112;11.662;2023-01-10T13:18:17;96080.31;;;9.67
34310;BMP280;61664;48.112;11.662;2023-01-10T13:21:01;96060.06;;;9.57
34310;BMP280;61664;48.112;11.662;2023-01-10T13:23:32;96072.31;;;9.67
34310;BMP280;61664;48.112;11.662;2023-01-10T13:26:04;96059.84;;;9.64
34310;BMP280;61664;48.112;11.662;2023-01-10T13:28:58;96056.75;;;9.66
34310;BMP280;61664;48.112;11.662;2023-01-10T13:31:34;96056.13;;;9.62
34310;BMP280;61664;48.112;11.662;2023-01-10T13:34:06;96063.56;;;9.67
34310;BMP280;61664;48.112;11.662;2023-01-10T13:36:53;96060.69;;;9.61
34310;BMP280;61664;48.112;11.662;2023-01-10T13:39:35;96056.22;;;9.58
34310;BMP280;61664;48.112;11.662;2023-01-10T13:55:54;96071.03;;;9.72
34310;BMP280;61664;48.112;11.662;2023-01-10T14:01:35;96092.47;;;9.68
34310;BMP280;61664;48.112;11.662;2023-01-10T14:04:26;96086.53;;;9.64
34310;BMP280;61664;48.112;11.662;2023-01-10T14:07:26;96083.84;;;9.64
34310;BMP280;61664;48.112;11.662;2023-01-10T14:10:06;96064.00;;;9.65
34310;BMP280;61664;48.112;11.662;2023-01-10T14:15:27;96066.66;;;9.65
34310;BMP280;61664;48.112;11.662;2023-01-10T14:18:01;96061.84;;;9.60
34310;BMP280;61664;48.112;11.662;2023-01-10T14:20:32;96068.50;;;9.56
34310;BMP280;61664;48.112;11.662;2023-01-10T14:23:04;96067.56;;;9.49
34310;BMP280;61664;48.112;11.662;2023-01-10T14:25:35;96065.69;;;9.37
34310;BMP280;61664;48.112;11.662;2023-01-10T14:28:05;96073.53;;;9.41
34310;BMP280;61664;48.112;11.662;2023-01-10T14:30:41;96070.69;;;9.35
34310;BMP280;61664;48.112;11.662;2023-01-10T14:33:15;96075.81;;;9.42
34310;BMP280;61664;48.112;11.662;2023-01-10T14:35:50;96073.69;;;9.37
34310;BMP280;61664;48.112;11.662;2023-01-10T14:38:26;96077.84;;;9.38
34310;BMP280;61664;48.112;11.662;2023-01-10T14:41:23;96081.53;;;9.41
34310;BMP280;61664;48.112;11.662;2023-01-10T14:44:00;96073.53;;;9.41
34310;BMP280;61664;48.112;11.662;2023-01-10T14:46:50;96081.22;;;9.51
34310;BMP280;61664;48.112;11.662;2023-01-10T14:49:18;96078.00;;;9.57
34310;BMP280;61664;48.112;11.662;2023-01-10T14:51:46;96088.53;;;9.60
34310;BMP280;61664;48.112;11.662;2023-01-10T14:54:20;96081.28;;;9.61
34310;BMP280;61664;48.112;11.662;2023-01-10T14:56:51;96081.03;;;9.68
34310;BMP280;61664;48.112;11.662;2023-01-10T14:59:28;96088.41;;;9.76
34310;BMP280;61664;48.112;11.662;2023-01-10T15:02:19;96090.44;;;9.72
34310;BMP280;61664;48.112;11.662;2023-01-10T15:04:58;96090.00;;;9.74
34310;BMP280;61664;48.112;11.662;2023-01-10T15:07:27;96070.59;;;9.61
34310;BMP280;61664;48.112;11.662;2023-01-10T15:09:57;96084.28;;;9.63
34310;BMP280;61664;48.112;11.662;2023-01-10T15:12:29;96078.44;;;9.55
34310;BMP280;61664;48.112;11.662;2023-01-10T15:15:12;96081.53;;;9.53
34310;BMP280;61664;48.112;11.662;2023-01-10T15:17:42;96084.19;;;9.53
34310;BMP280;61664;48.112;11.662;2023-01-10T15:20:18;96084.97;;;9.41
34310;BMP280;61664;48.112;11.662;2023-01-10T15:22:57;96086.50;;;9.30
34310;BMP280;61664;48.112;11.662;2023-01-10T15:25:36;96080.31;;;9.20
34310;BMP280;61664;48.112;11.662;2023-01-10T15:28:14;96073.41;;;9.10
34310;BMP280;61664;48.112;11.662;2023-01-10T15:30:41;96065.84;;;8.96
34310;BMP280;61664;48.112;11.662;2023-01-10T15:33:15;96079.59;;;8.94
34310;BMP280;61664;48.112;11.662;2023-01-10T15:35:42;96070.13;;;8.80
34310;BMP280;61664;48.112;11.662;2023-01-10T15:38:21;96082.28;;;8.81
34310;BMP280;61664;48.112;11.662;2023-01-10T15:41:00;96067.44;;;8.68
34310;BMP280;61664;48.112;11.662;2023-01-10T15:43:30;96080.69;;;8.71
34310;BMP280;61664;48.112;11.662;2023-01-10T15:46:00;96083.44;;;8.68
34310;BMP280;61664;48.112;11.662;2023-01-10T15:48:37;96092.72;;;8.63
34310;BMP280;61664;48.112;11.662;2023-01-10T15:54:01;96088.31;;;8.44
34310;BMP280;61664;48.112;11.662;2023-01-10T15:56:40;96072.41;;;8.28
34310;BMP280;61664;48.112;11.662;2023-01-10T15:59:31;96082.41;;;8.23
34310;BMP280;61664;48.112;11.662;2023-01-10T16:02:21;96080.03;;;8.13
34310;BMP280;61664;48.112;11.662;2023-01-10T16:04:55;96077.47;;;8.09
34310;BMP280;61664;48.112;11.662;2023-01-10T16:07:33;96070.94;;;7.98
34310;BMP280;61664;48.112;11.662;2023-01-10T16:10:12;96075.50;;;7.97